PWSweather.com
Personal Weather Stations
Station Observations
WATERF01
WaterfordIE

WaterfordIE

Lat: 52.2412507, Lon: -7.1414691

Elevation: 65

Station Type: Davis Vantage Vue

www.waterfordweather.com

High Low Average
Temperature 69.4°F20.8°C 57.6°F14.2°C 63.4°F17.4°C
Dew Point 62.5°F16.9°C 55.9°F13.3°C 58.9°F14.9°C
Winds 3.5 mph 5.6 kmh Calm Calm Calm WSWCalm WSW
Wind Gusts 10.4 mph16.7 kmh -- 1.0 mph1.6 kmh
Humidity 97% 68% 86%
Pressure 29.75 in1007.5 mb 29.67 in1004.7 mb -
Precipitation 0.02 in0.5 mm - -
Hour Temp Dew Point Humidity Winds Wind Gusts Pressure Precip Precip Rate Daily Precip Total
12:00 AM 63.0°F17.2°C 61.8°F16.6°C 96% Calm Calm -- 29.74 in1007.1 mb - 0.00 in0.0 mm 0.00 in0.0 mm
12:10 AM 62.8°F17.1°C 62.0°F16.7°C 97% 1.2 mph SW1.9 kmh SW 2.3 mph3.7 kmh 29.74 in1007.1 mb - 0.01 in0.3 mm 0.01 in0.3 mm
12:20 AM 62.6°F17.0°C 61.7°F16.5°C 97% 1.2 mph WSW1.9 kmh WSW 10.4 mph16.7 kmh 29.75 in1007.5 mb - 0.02 in0.5 mm 0.02 in0.5 mm
12:30 AM 61.6°F16.4°C 60.5°F15.8°C 96% 3.5 mph WSW5.6 kmh WSW 4.6 mph7.4 kmh 29.74 in1007.1 mb - 0.02 in0.5 mm 0.02 in0.5 mm
12:40 AM 61.0°F16.1°C 59.9°F15.5°C 96% 2.3 mph WNW3.7 kmh WNW 6.9 mph11.1 kmh 29.74 in1007.1 mb - 0.02 in0.5 mm 0.02 in0.5 mm
12:50 AM 60.8°F16.0°C 59.4°F15.2°C 95% 1.2 mph WSW1.9 kmh WSW 2.3 mph3.7 kmh 29.74 in1007.1 mb - 0.02 in0.5 mm 0.02 in0.5 mm
01:00 AM 60.8°F16.0°C 59.4°F15.2°C 95% Calm Calm 2.3 mph3.7 kmh 29.74 in1007.1 mb - 0.02 in0.5 mm 0.02 in0.5 mm
01:10 AM 60.9°F16.1°C 59.5°F15.3°C 95% 1.2 mph W1.9 kmh W 2.3 mph3.7 kmh 29.73 in1006.8 mb - 0.02 in0.5 mm 0.02 in0.5 mm
01:20 AM 60.9°F16.1°C 59.5°F15.3°C 95% 1.2 mph WNW1.9 kmh WNW 2.3 mph3.7 kmh 29.73 in1006.8 mb - 0.01 in0.3 mm 0.02 in0.5 mm
01:30 AM 60.7°F15.9°C 59.3°F15.2°C 95% 1.2 mph SW1.9 kmh SW 4.6 mph7.4 kmh 29.73 in1006.8 mb - 0.00 in0.0 mm 0.02 in0.5 mm
01:40 AM 60.3°F15.7°C 58.9°F14.9°C 95% 2.3 mph W3.7 kmh W 3.5 mph5.6 kmh 29.73 in1006.8 mb - 0.00 in0.0 mm 0.02 in0.5 mm
01:50 AM 60.2°F15.7°C 58.8°F14.9°C 95% Calm Calm 3.5 mph5.6 kmh 29.72 in1006.4 mb - 0.00 in0.0 mm 0.02 in0.5 mm
02:00 AM 60.3°F15.7°C 58.9°F14.9°C 95% 1.2 mph NW1.9 kmh NW 3.5 mph5.6 kmh 29.72 in1006.4 mb - 0.00 in0.0 mm 0.02 in0.5 mm
02:10 AM 60.4°F15.8°C 59.0°F15.0°C 95% 2.3 mph WSW3.7 kmh WSW 10.4 mph16.7 kmh 29.71 in1006.1 mb - 0.00 in0.0 mm 0.02 in0.5 mm
02:20 AM 60.3°F15.7°C 59.2°F15.1°C 96% Calm Calm -- 29.72 in1006.4 mb - 0.00 in0.0 mm 0.02 in0.5 mm
02:30 AM 60.2°F15.7°C 58.8°F14.9°C 95% 1.2 mph SE1.9 kmh SE 3.5 mph5.6 kmh 29.71 in1006.1 mb - 0.00 in0.0 mm 0.02 in0.5 mm
02:40 AM 60.1°F15.6°C 58.7°F14.8°C 95% 1.2 mph SW1.9 kmh SW 3.5 mph5.6 kmh 29.71 in1006.1 mb - 0.00 in0.0 mm 0.02 in0.5 mm
02:50 AM 60.0°F15.6°C 58.6°F14.8°C 95% Calm Calm -- 29.71 in1006.1 mb - 0.00 in0.0 mm 0.02 in0.5 mm
03:00 AM 60.0°F15.6°C 58.9°F14.9°C 96% 2.3 mph S3.7 kmh S 3.5 mph5.6 kmh 29.71 in1006.1 mb - 0.00 in0.0 mm 0.02 in0.5 mm
03:10 AM 60.0°F15.6°C 58.5°F14.7°C 95% 2.3 mph WSW3.7 kmh WSW 3.5 mph5.6 kmh 29.71 in1006.1 mb - 0.00 in0.0 mm 0.02 in0.5 mm
03:20 AM 59.8°F15.4°C 58.4°F14.7°C 95% 1.2 mph SW1.9 kmh SW 2.3 mph3.7 kmh 29.70 in1005.8 mb - 0.00 in0.0 mm 0.02 in0.5 mm
03:30 AM 59.5°F15.3°C 58.1°F14.5°C 95% 1.2 mph SW1.9 kmh SW 2.3 mph3.7 kmh 29.71 in1006.1 mb - 0.00 in0.0 mm 0.02 in0.5 mm
03:40 AM 59.2°F15.1°C 57.8°F14.3°C 95% 1.2 mph WSW1.9 kmh WSW 3.5 mph5.6 kmh 29.70 in1005.8 mb - 0.00 in0.0 mm 0.02 in0.5 mm
03:50 AM 59.0°F15.0°C 57.5°F14.2°C 95% Calm Calm -- 29.70 in1005.8 mb - 0.00 in0.0 mm 0.02 in0.5 mm
04:00 AM 58.7°F14.8°C 57.3°F14.1°C 95% Calm Calm -- 29.70 in1005.8 mb - 0.00 in0.0 mm 0.02 in0.5 mm
04:10 AM 58.7°F14.8°C 57.3°F14.1°C 95% Calm Calm -- 29.70 in1005.8 mb - 0.00 in0.0 mm 0.02 in0.5 mm
04:20 AM 58.8°F14.9°C 57.4°F14.1°C 95% Calm Calm -- 29.70 in1005.8 mb - 0.00 in0.0 mm 0.02 in0.5 mm
04:30 AM 58.8°F14.9°C 57.4°F14.1°C 95% 1.2 mph SW1.9 kmh SW 2.3 mph3.7 kmh 29.70 in1005.8 mb - 0.00 in0.0 mm 0.02 in0.5 mm
04:40 AM 58.7°F14.8°C 57.3°F14.1°C 95% 1.2 mph SW1.9 kmh SW 2.3 mph3.7 kmh 29.70 in1005.8 mb - 0.00 in0.0 mm 0.02 in0.5 mm
04:50 AM 58.8°F14.9°C 57.4°F14.1°C 95% 1.2 mph W1.9 kmh W 2.3 mph3.7 kmh 29.70 in1005.8 mb - 0.00 in0.0 mm 0.02 in0.5 mm
05:00 AM 58.8°F14.9°C 57.4°F14.1°C 95% Calm Calm -- 29.69 in1005.4 mb - 0.00 in0.0 mm 0.02 in0.5 mm
05:10 AM 58.8°F14.9°C 57.4°F14.1°C 95% Calm Calm -- 29.70 in1005.8 mb - 0.00 in0.0 mm 0.02 in0.5 mm
05:20 AM 58.6°F14.8°C 57.2°F14.0°C 95% Calm Calm -- 29.70 in1005.8 mb - 0.00 in0.0 mm 0.02 in0.5 mm
05:30 AM 58.3°F14.6°C 56.9°F13.8°C 95% Calm Calm -- 29.69 in1005.4 mb - 0.00 in0.0 mm 0.02 in0.5 mm
05:40 AM 58.1°F14.5°C 56.4°F13.6°C 94% Calm Calm -- 29.70 in1005.8 mb - 0.00 in0.0 mm 0.02 in0.5 mm
05:50 AM 58.0°F14.4°C 56.6°F13.7°C 95% Calm Calm -- 29.69 in1005.4 mb - 0.00 in0.0 mm 0.02 in0.5 mm
06:00 AM 57.9°F14.4°C 56.2°F13.4°C 94% Calm Calm -- 29.70 in1005.8 mb - 0.00 in0.0 mm 0.02 in0.5 mm
06:10 AM 57.6°F14.2°C 55.9°F13.3°C 94% Calm Calm -- 29.69 in1005.4 mb - 0.00 in0.0 mm 0.02 in0.5 mm
06:20 AM 58.2°F14.6°C 56.5°F13.6°C 94% Calm Calm -- 29.70 in1005.8 mb - 0.00 in0.0 mm 0.02 in0.5 mm
06:30 AM 59.1°F15.1°C 57.4°F14.1°C 94% Calm Calm -- 29.70 in1005.8 mb - 0.00 in0.0 mm 0.02 in0.5 mm
06:40 AM 59.1°F15.1°C 57.4°F14.1°C 94% Calm Calm -- 29.70 in1005.8 mb - 0.00 in0.0 mm 0.02 in0.5 mm
06:50 AM 59.7°F15.4°C 58.0°F14.4°C 94% Calm Calm -- 29.69 in1005.4 mb - 0.00 in0.0 mm 0.02 in0.5 mm
07:00 AM 59.9°F15.5°C 58.2°F14.6°C 94% Calm Calm -- 29.69 in1005.4 mb - 0.00 in0.0 mm 0.02 in0.5 mm
07:10 AM 60.2°F15.7°C 58.5°F14.7°C 94% Calm Calm 1.2 mph1.9 kmh 29.70 in1005.8 mb - 0.00 in0.0 mm 0.02 in0.5 mm
07:20 AM 60.8°F16.0°C 59.0°F15.0°C 94% Calm Calm -- 29.69 in1005.4 mb - 0.00 in0.0 mm 0.02 in0.5 mm
07:30 AM 60.7°F15.9°C 59.3°F15.2°C 95% 1.2 mph WNW1.9 kmh WNW 2.3 mph3.7 kmh 29.69 in1005.4 mb - 0.00 in0.0 mm 0.02 in0.5 mm
07:40 AM 60.9°F16.1°C 59.5°F15.3°C 95% Calm Calm -- 29.69 in1005.4 mb - 0.00 in0.0 mm 0.02 in0.5 mm
07:50 AM 61.6°F16.4°C 59.9°F15.5°C 94% Calm Calm -- 29.69 in1005.4 mb - 0.00 in0.0 mm 0.02 in0.5 mm
08:00 AM 62.0°F16.7°C 60.6°F15.9°C 95% 2.3 mph NW3.7 kmh NW 3.5 mph5.6 kmh 29.69 in1005.4 mb - 0.00 in0.0 mm 0.02 in0.5 mm
08:10 AM 62.2°F16.8°C 60.4°F15.8°C 94% Calm Calm -- 29.69 in1005.4 mb - 0.00 in0.0 mm 0.02 in0.5 mm
08:20 AM 62.5°F16.9°C 60.7°F15.9°C 94% 1.2 mph W1.9 kmh W 2.3 mph3.7 kmh 29.69 in1005.4 mb - 0.00 in0.0 mm 0.02 in0.5 mm
08:30 AM 62.4°F16.9°C 60.1°F15.6°C 92% Calm Calm 2.3 mph3.7 kmh 29.69 in1005.4 mb - 0.00 in0.0 mm 0.02 in0.5 mm
08:40 AM 63.0°F17.2°C 60.6°F15.9°C 92% Calm Calm -- 29.69 in1005.4 mb - 0.00 in0.0 mm 0.02 in0.5 mm
08:50 AM 63.4°F17.4°C 60.7°F15.9°C 91% Calm Calm -- 29.69 in1005.4 mb - 0.00 in0.0 mm 0.02 in0.5 mm
09:00 AM 64.0°F17.8°C 61.0°F16.1°C 90% Calm Calm -- 29.69 in1005.4 mb - 0.00 in0.0 mm 0.02 in0.5 mm
09:10 AM 64.1°F17.8°C 61.4°F16.3°C 91% Calm Calm -- 29.69 in1005.4 mb - 0.00 in0.0 mm 0.02 in0.5 mm
09:20 AM 64.4°F18.0°C 61.4°F16.3°C 90% Calm Calm -- 29.69 in1005.4 mb - 0.00 in0.0 mm 0.02 in0.5 mm
09:30 AM 64.1°F17.8°C 60.2°F15.7°C 87% Calm Calm -- 29.69 in1005.4 mb - 0.00 in0.0 mm 0.02 in0.5 mm
09:40 AM 64.0°F17.8°C 60.4°F15.8°C 88% Calm Calm -- 29.69 in1005.4 mb - 0.00 in0.0 mm 0.02 in0.5 mm
09:50 AM 64.2°F17.9°C 60.3°F15.7°C 87% Calm Calm -- 29.69 in1005.4 mb - 0.00 in0.0 mm 0.02 in0.5 mm
10:00 AM 64.6°F18.1°C 61.0°F16.1°C 88% Calm Calm -- 29.69 in1005.4 mb - 0.00 in0.0 mm 0.02 in0.5 mm
10:10 AM 65.1°F18.4°C 61.4°F16.3°C 88% Calm Calm -- 29.69 in1005.4 mb - 0.00 in0.0 mm 0.02 in0.5 mm
10:20 AM 66.4°F19.1°C 62.5°F16.9°C 87% 1.2 mph S1.9 kmh S 3.5 mph5.6 kmh 29.69 in1005.4 mb - 0.00 in0.0 mm 0.02 in0.5 mm
10:30 AM 67.1°F19.5°C 62.4°F16.9°C 85% 2.3 mph WNW3.7 kmh WNW 2.3 mph3.7 kmh 29.68 in1005.1 mb - 0.00 in0.0 mm 0.02 in0.5 mm
10:40 AM 66.5°F19.2°C 60.8°F16.0°C 82% 2.3 mph NW3.7 kmh NW 3.5 mph5.6 kmh 29.68 in1005.1 mb - 0.00 in0.0 mm 0.02 in0.5 mm
10:50 AM 66.5°F19.2°C 61.1°F16.2°C 83% 3.5 mph NW5.6 kmh NW 4.6 mph7.4 kmh 29.69 in1005.4 mb - 0.00 in0.0 mm 0.02 in0.5 mm
11:00 AM 67.0°F19.4°C 62.3°F16.8°C 85% 2.3 mph NW3.7 kmh NW 3.5 mph5.6 kmh 29.69 in1005.4 mb - 0.00 in0.0 mm 0.02 in0.5 mm
11:10 AM 66.1°F18.9°C 60.1°F15.6°C 81% 1.2 mph WNW1.9 kmh WNW 3.5 mph5.6 kmh 29.68 in1005.1 mb - 0.00 in0.0 mm 0.02 in0.5 mm
11:20 AM 65.8°F18.8°C 60.1°F15.6°C 82% 1.2 mph NW1.9 kmh NW 2.3 mph3.7 kmh 29.68 in1005.1 mb - 0.00 in0.0 mm 0.02 in0.5 mm
11:30 AM 65.5°F18.6°C 59.5°F15.3°C 81% 1.2 mph W1.9 kmh W 3.5 mph5.6 kmh 29.68 in1005.1 mb - 0.00 in0.0 mm 0.02 in0.5 mm
11:40 AM 65.8°F18.8°C 57.7°F14.3°C 75% Calm Calm 1.2 mph1.9 kmh 29.68 in1005.1 mb - 0.00 in0.0 mm 0.02 in0.5 mm
11:50 AM 66.7°F19.3°C 57.3°F14.1°C 72% Calm Calm -- 29.68 in1005.1 mb - 0.00 in0.0 mm 0.02 in0.5 mm
12:00 PM 68.5°F20.3°C 58.3°F14.6°C 70% Calm Calm -- 29.68 in1005.1 mb - 0.00 in0.0 mm 0.02 in0.5 mm
12:10 PM 69.4°F20.8°C 58.4°F14.7°C 68% Calm Calm -- 29.68 in1005.1 mb - 0.00 in0.0 mm 0.02 in0.5 mm
12:20 PM 69.4°F20.8°C 58.4°F14.7°C 68% Calm Calm -- 29.68 in1005.1 mb - 0.00 in0.0 mm 0.02 in0.5 mm
12:30 PM 69.4°F20.8°C 59.6°F15.3°C 71% Calm Calm -- 29.68 in1005.1 mb - 0.00 in0.0 mm 0.02 in0.5 mm
12:40 PM 68.6°F20.3°C 59.6°F15.3°C 73% Calm Calm 1.2 mph1.9 kmh 29.68 in1005.1 mb - 0.00 in0.0 mm 0.02 in0.5 mm
12:50 PM 68.0°F20.0°C 59.4°F15.2°C 74% Calm Calm 1.2 mph1.9 kmh 29.68 in1005.1 mb - 0.00 in0.0 mm 0.02 in0.5 mm
01:00 PM 67.4°F19.7°C 59.2°F15.1°C 75% Calm Calm 1.2 mph1.9 kmh 29.68 in1005.1 mb - 0.00 in0.0 mm 0.02 in0.5 mm
01:10 PM 67.4°F19.7°C 59.2°F15.1°C 75% Calm Calm -- 29.68 in1005.1 mb - 0.00 in0.0 mm 0.02 in0.5 mm
01:20 PM 67.5°F19.7°C 58.5°F14.7°C 73% Calm Calm -- 29.68 in1005.1 mb - 0.00 in0.0 mm 0.02 in0.5 mm
01:30 PM 67.7°F19.8°C 58.7°F14.8°C 73% Calm Calm 1.2 mph1.9 kmh 29.68 in1005.1 mb - 0.00 in0.0 mm 0.02 in0.5 mm
01:40 PM 68.1°F20.1°C 58.7°F14.8°C 72% Calm Calm -- 29.68 in1005.1 mb - 0.00 in0.0 mm 0.02 in0.5 mm
01:50 PM 68.5°F20.3°C 59.1°F15.1°C 72% Calm Calm 1.2 mph1.9 kmh 29.68 in1005.1 mb - 0.00 in0.0 mm 0.02 in0.5 mm
02:00 PM 68.1°F20.1°C 58.7°F14.8°C 72% Calm Calm 1.2 mph1.9 kmh 29.68 in1005.1 mb - 0.00 in0.0 mm 0.02 in0.5 mm
02:10 PM 67.7°F19.8°C 58.7°F14.8°C 73% Calm Calm -- 29.68 in1005.1 mb - 0.00 in0.0 mm 0.02 in0.5 mm
02:20 PM 67.1°F19.5°C 58.1°F14.5°C 73% Calm Calm -- 29.68 in1005.1 mb - 0.00 in0.0 mm 0.02 in0.5 mm
02:30 PM 66.3°F19.1°C 58.1°F14.5°C 75% Calm Calm -- 29.68 in1005.1 mb - 0.00 in0.0 mm 0.02 in0.5 mm
02:40 PM 65.9°F18.8°C 57.7°F14.3°C 75% Calm Calm -- 29.68 in1005.1 mb - 0.00 in0.0 mm 0.02 in0.5 mm
02:50 PM 65.9°F18.8°C 58.1°F14.5°C 76% Calm Calm -- 29.68 in1005.1 mb - 0.00 in0.0 mm 0.02 in0.5 mm
03:00 PM 66.0°F18.9°C 58.2°F14.6°C 76% Calm Calm -- 29.68 in1005.1 mb - 0.00 in0.0 mm 0.02 in0.5 mm
03:10 PM 66.0°F18.9°C 58.2°F14.6°C 76% Calm Calm -- 29.68 in1005.1 mb - 0.00 in0.0 mm 0.02 in0.5 mm
03:20 PM 66.5°F19.2°C 58.7°F14.8°C 76% Calm Calm -- 29.68 in1005.1 mb - 0.00 in0.0 mm 0.02 in0.5 mm
03:40 PM 66.4°F19.1°C 58.6°F14.8°C 76% Calm Calm -- 29.68 in1005.1 mb - 0.00 in0.0 mm 0.02 in0.5 mm
03:50 PM 66.1°F18.9°C 58.6°F14.8°C 77% Calm Calm 1.2 mph1.9 kmh 29.68 in1005.1 mb - 0.00 in0.0 mm 0.02 in0.5 mm
04:00 PM 65.6°F18.7°C 58.5°F14.7°C 78% Calm Calm -- 29.68 in1005.1 mb - 0.00 in0.0 mm 0.02 in0.5 mm
04:10 PM 65.2°F18.4°C 58.5°F14.7°C 79% Calm Calm 1.2 mph1.9 kmh 29.67 in1004.7 mb - 0.00 in0.0 mm 0.02 in0.5 mm
04:20 PM 65.0°F18.3°C 58.3°F14.6°C 79% Calm Calm 1.2 mph1.9 kmh 29.68 in1005.1 mb - 0.00 in0.0 mm 0.02 in0.5 mm
04:30 PM 64.8°F18.2°C 58.5°F14.7°C 80% Calm Calm -- 29.67 in1004.7 mb - 0.00 in0.0 mm 0.02 in0.5 mm
04:40 PM 64.7°F18.2°C 58.4°F14.7°C 80% Calm Calm 2.3 mph3.7 kmh 29.68 in1005.1 mb - 0.00 in0.0 mm 0.02 in0.5 mm
04:50 PM 64.5°F18.1°C 58.2°F14.6°C 80% Calm Calm 3.5 mph5.6 kmh 29.67 in1004.7 mb - 0.00 in0.0 mm 0.02 in0.5 mm
05:00 PM 64.3°F17.9°C 58.0°F14.4°C 80% Calm Calm 3.5 mph5.6 kmh 29.67 in1004.7 mb - 0.00 in0.0 mm 0.02 in0.5 mm
05:10 PM 64.0°F17.8°C 57.7°F14.3°C 80% Calm Calm -- 29.67 in1004.7 mb - 0.00 in0.0 mm 0.02 in0.5 mm
05:20 PM 64.0°F17.8°C 58.1°F14.5°C 81% 1.2 mph WNW1.9 kmh WNW 3.5 mph5.6 kmh 29.68 in1005.1 mb - 0.00 in0.0 mm 0.02 in0.5 mm
05:30 PM 64.3°F17.9°C 58.4°F14.7°C 81% Calm Calm -- 29.67 in1004.7 mb - 0.00 in0.0 mm 0.02 in0.5 mm
05:40 PM 64.8°F18.2°C 58.8°F14.9°C 81% Calm Calm -- 29.68 in1005.1 mb - 0.00 in0.0 mm 0.02 in0.5 mm
05:50 PM 66.2°F19.0°C 59.5°F15.3°C 79% Calm Calm -- 29.68 in1005.1 mb - 0.00 in0.0 mm 0.02 in0.5 mm
06:00 PM 66.2°F19.0°C 59.5°F15.3°C 79% Calm Calm -- 29.68 in1005.1 mb - 0.00 in0.0 mm 0.02 in0.5 mm
06:10 PM 65.6°F18.7°C 59.3°F15.2°C 80% Calm Calm -- 29.68 in1005.1 mb - 0.00 in0.0 mm 0.02 in0.5 mm
06:20 PM 65.6°F18.7°C 59.3°F15.2°C 80% Calm Calm -- 29.67 in1004.7 mb - 0.00 in0.0 mm 0.02 in0.5 mm
06:30 PM 65.7°F18.7°C 59.4°F15.2°C 80% Calm Calm -- 29.68 in1005.1 mb - 0.00 in0.0 mm 0.02 in0.5 mm
06:40 PM 65.5°F18.6°C 59.2°F15.1°C 80% Calm Calm -- 29.68 in1005.1 mb - 0.00 in0.0 mm 0.02 in0.5 mm
06:50 PM 65.7°F18.7°C 59.4°F15.2°C 80% Calm Calm -- 29.67 in1004.7 mb - 0.00 in0.0 mm 0.02 in0.5 mm
07:00 PM 65.6°F18.7°C 59.3°F15.2°C 80% Calm Calm -- 29.68 in1005.1 mb - 0.00 in0.0 mm 0.02 in0.5 mm
07:10 PM 65.5°F18.6°C 59.5°F15.3°C 81% Calm Calm -- 29.68 in1005.1 mb - 0.00 in0.0 mm 0.02 in0.5 mm
07:20 PM 65.8°F18.8°C 59.8°F15.4°C 81% Calm Calm -- 29.68 in1005.1 mb - 0.00 in0.0 mm 0.02 in0.5 mm
07:30 PM 66.6°F19.2°C 59.9°F15.5°C 79% Calm Calm -- 29.68 in1005.1 mb - 0.00 in0.0 mm 0.02 in0.5 mm
07:40 PM 66.0°F18.9°C 59.7°F15.4°C 80% Calm Calm -- 29.68 in1005.1 mb - 0.00 in0.0 mm 0.02 in0.5 mm
07:50 PM 65.3°F18.5°C 59.3°F15.2°C 81% Calm Calm -- 29.68 in1005.1 mb - 0.00 in0.0 mm 0.02 in0.5 mm
08:00 PM 64.6°F18.1°C 59.0°F15.0°C 82% Calm Calm -- 29.68 in1005.1 mb - 0.00 in0.0 mm 0.02 in0.5 mm
08:10 PM 64.1°F17.8°C 58.8°F14.9°C 83% Calm Calm -- 29.69 in1005.4 mb - 0.00 in0.0 mm 0.02 in0.5 mm
08:20 PM 63.9°F17.7°C 58.6°F14.8°C 83% Calm Calm -- 29.70 in1005.8 mb - 0.00 in0.0 mm 0.02 in0.5 mm
08:30 PM 63.9°F17.7°C 58.6°F14.8°C 83% Calm Calm -- 29.70 in1005.8 mb - 0.00 in0.0 mm 0.02 in0.5 mm
08:40 PM 63.9°F17.7°C 58.6°F14.8°C 83% Calm Calm -- 29.70 in1005.8 mb - 0.00 in0.0 mm 0.02 in0.5 mm
09:00 PM 64.0°F17.8°C 58.7°F14.8°C 83% Calm Calm -- 29.70 in1005.8 mb - 0.00 in0.0 mm 0.02 in0.5 mm
09:10 PM 63.9°F17.7°C 58.6°F14.8°C 83% Calm Calm -- 29.70 in1005.8 mb - 0.00 in0.0 mm 0.02 in0.5 mm
09:20 PM 63.8°F17.7°C 58.5°F14.7°C 83% Calm Calm -- 29.70 in1005.8 mb - 0.00 in0.0 mm 0.02 in0.5 mm
09:30 PM 63.7°F17.6°C 58.5°F14.7°C 83% Calm Calm -- 29.70 in1005.8 mb - 0.00 in0.0 mm 0.02 in0.5 mm
09:40 PM 63.7°F17.6°C 58.4°F14.7°C 83% Calm Calm -- 29.70 in1005.8 mb - 0.00 in0.0 mm 0.02 in0.5 mm
09:50 PM 63.6°F17.6°C 58.7°F14.8°C 84% Calm Calm -- 29.70 in1005.8 mb - 0.00 in0.0 mm 0.02 in0.5 mm
10:00 PM 63.5°F17.5°C 58.2°F14.6°C 83% Calm Calm -- 29.70 in1005.8 mb - 0.00 in0.0 mm 0.02 in0.5 mm
10:10 PM 63.7°F17.6°C 58.4°F14.7°C 83% Calm Calm -- 29.70 in1005.8 mb - 0.00 in0.0 mm 0.02 in0.5 mm
10:20 PM 63.7°F17.6°C 58.1°F14.5°C 82% 1.2 mph WNW1.9 kmh WNW 4.6 mph7.4 kmh 29.70 in1005.8 mb - 0.00 in0.0 mm 0.02 in0.5 mm
10:30 PM 63.6°F17.6°C 58.0°F14.4°C 82% Calm Calm -- 29.70 in1005.8 mb - 0.00 in0.0 mm 0.02 in0.5 mm
10:40 PM 63.4°F17.4°C 57.8°F14.3°C 82% Calm Calm -- 29.71 in1006.1 mb - 0.00 in0.0 mm 0.02 in0.5 mm
10:50 PM 63.2°F17.3°C 57.6°F14.2°C 82% Calm Calm -- 29.71 in1006.1 mb - 0.00 in0.0 mm 0.02 in0.5 mm
11:00 PM 63.0°F17.2°C 57.4°F14.1°C 82% Calm Calm -- 29.71 in1006.1 mb - 0.00 in0.0 mm 0.14 in3.6 mm
11:10 PM 62.9°F17.2°C 57.3°F14.1°C 82% 1.2 mph WNW1.9 kmh WNW 2.3 mph3.7 kmh 29.71 in1006.1 mb - 0.00 in0.0 mm 0.14 in3.6 mm
11:20 PM 62.8°F17.1°C 57.5°F14.2°C 83% 2.3 mph WNW3.7 kmh WNW 5.8 mph9.3 kmh 29.70 in1005.8 mb - 0.00 in0.0 mm 0.14 in3.6 mm
11:30 PM 62.7°F17.1°C 57.5°F14.2°C 83% 2.3 mph NNW3.7 kmh NNW 4.6 mph7.4 kmh 29.71 in1006.1 mb - 0.00 in0.0 mm 0.14 in3.6 mm
11:40 PM 62.8°F17.1°C 57.6°F14.2°C 83% 1.2 mph W1.9 kmh W 1.2 mph1.9 kmh 29.71 in1006.1 mb - 0.00 in0.0 mm 0.14 in3.6 mm
11:50 PM 62.8°F17.1°C 57.6°F14.2°C 83% 1.2 mph WNW1.9 kmh WNW 2.3 mph3.7 kmh 29.71 in1006.1 mb - 0.00 in0.0 mm 0.14 in3.6 mm